Time;durP1;ratioP1;P1;durP2;ratioP2;P2;SDS_P1;SDS_P2;PMS_P1;PMS_P2;Temp;Humidity;BMP_temperature;BMP_pressure;BME280_temperature;BME280_humidity;BME280_pressure;Samples;Min_cycle;Max_cycle;Signal;HPM_P1;HPM_P2
2022/08/22 04:03:12;;;;;;;7.60;7.00;;;16.20;99.90;;;;;;4975107;28;20831;-68
2022/08/22 04:06:10;;;;;;;9.40;7.33;;;16.30;99.90;;;;;;4976014;28;20445;-67
2022/08/22 04:09:02;;;;;;;7.33;6.73;;;16.30;99.90;;;;;;4975927;28;20798;-67
2022/08/22 04:12:06;;;;;;;7.97;7.17;;;16.30;99.90;;;;;;4975780;28;20478;-67
2022/08/22 04:14:48;;;;;;;7.97;7.27;;;16.30;99.90;;;;;;4976195;28;20564;-67
2022/08/22 04:17:34;;;;;;;8.00;7.20;;;16.30;99.90;;;;;;4976152;28;20470;-67
2022/08/22 04:20:20;;;;;;;9.57;7.33;;;16.30;99.90;;;;;;4976584;28;20779;-67
2022/08/22 04:23:05;;;;;;;7.60;6.83;;;16.30;99.90;;;;;;4976215;28;20439;-67
2022/08/22 04:25:37;;;;;;;8.20;7.40;;;16.30;99.90;;;;;;4976253;28;20439;-67
2022/08/22 04:28:11;;;;;;;8.30;7.50;;;16.30;99.90;;;;;;4976092;28;20438;-68
2022/08/22 04:30:43;;;;;;;7.40;6.70;;;16.30;99.90;;;;;;4976204;28;20482;-68
2022/08/22 04:33:19;;;;;;;8.20;7.40;;;16.30;99.90;;;;;;4976289;28;20450;-67
2022/08/22 04:36:03;;;;;;;8.00;7.30;;;16.30;99.90;;;;;;4975875;28;20474;-68
2022/08/22 04:38:38;;;;;;;8.73;8.03;;;16.30;99.90;;;;;;4974697;28;20439;-69
2022/08/22 04:41:09;;;;;;;8.63;7.53;;;16.20;99.90;;;;;;4975190;28;20478;-67
2022/08/22 04:43:41;;;;;;;8.87;7.90;;;16.20;99.90;;;;;;4975630;28;20438;-67
2022/08/22 04:46:15;;;;;;;11.73;8.30;;;16.10;99.90;;;;;;4975753;28;20477;-68
2022/08/22 04:48:52;;;;;;;8.80;8.10;;;16.10;99.90;;;;;;4975705;28;20799;-67
2022/08/22 04:51:26;;;;;;;10.87;8.77;;;16.10;99.90;;;;;;4975604;28;20478;-67
2022/08/22 04:54:11;;;;;;;9.23;8.20;;;16.00;99.90;;;;;;4975603;28;20445;-67
2022/08/22 04:56:49;;;;;;;8.90;8.10;;;16.00;99.90;;;;;;4975638;28;20883;-67
2022/08/22 04:59:17;;;;;;;9.30;7.47;;;16.10;99.90;;;;;;4975534;28;20446;-67
2022/08/22 05:01:47;;;;;;;9.10;8.20;;;16.20;99.90;;;;;;4975381;28;20486;-67
2022/08/22 05:04:19;;;;;;;9.10;8.27;;;16.20;99.90;;;;;;4975434;28;20455;-67
2022/08/22 05:06:52;;;;;;;8.40;7.70;;;16.30;99.90;;;;;;4975152;28;20446;-68
2022/08/22 05:09:26;;;;;;;8.83;7.87;;;16.30;99.90;;;;;;4975380;28;20471;-67
2022/08/22 05:11:59;;;;;;;8.50;7.90;;;16.30;99.90;;;;;;4975395;28;20509;-67
2022/08/22 05:14:31;;;;;;;9.20;8.10;;;16.40;99.90;;;;;;4975289;28;20558;-68
2022/08/22 05:16:59;;;;;;;8.50;7.80;;;16.40;99.90;;;;;;4975468;28;20445;-67
2022/08/22 05:19:32;;;;;;;9.70;8.80;;;16.40;99.90;;;;;;4975489;28;20454;-68
2022/08/22 05:22:01;;;;;;;8.93;8.03;;;16.40;99.90;;;;;;4974979;28;20844;-68
2022/08/22 05:24:36;;;;;;;9.90;8.47;;;16.40;99.90;;;;;;4975032;28;20820;-68
2022/08/22 05:27:09;;;;;;;9.93;8.27;;;16.40;99.90;;;;;;4975351;28;20477;-68
2022/08/22 05:29:40;;;;;;;9.60;8.73;;;16.40;99.90;;;;;;4974836;28;20883;-68
2022/08/22 05:32:12;;;;;;;8.87;8.17;;;16.40;99.90;;;;;;4974778;28;20478;-68
2022/08/22 05:34:41;;;;;;;10.13;9.10;;;16.30;99.90;;;;;;4975021;28;20466;-68
2022/08/22 05:37:14;;;;;;;8.53;7.70;;;16.40;99.90;;;;;;4974767;28;20454;-67
2022/08/22 05:39:45;;;;;;;11.10;7.80;;;16.40;99.90;;;;;;4975264;28;20439;-69
2022/08/22 05:42:17;;;;;;;8.00;7.40;;;16.60;99.90;;;;;;4976947;28;20992;-68
2022/08/22 05:44:43;;;;;;;7.60;7.00;;;16.80;99.90;;;;;;4980378;28;20466;-68
2022/08/22 05:47:21;;;;;;;7.97;7.30;;;17.00;99.90;;;;;;4980510;28;20455;-67
2022/08/22 05:49:57;;;;;;;7.30;6.60;;;17.10;99.90;;;;;;4975589;28;20863;-67
2022/08/22 05:52:42;;;;;;;6.43;6.00;;;17.20;99.90;;;;;;4978870;28;20549;-68
2022/08/22 05:55:19;;;;;;;8.77;7.90;;;17.40;99.90;;;;;;4978956;28;20466;-67
2022/08/22 05:57:50;;;;;;;7.07;6.37;;;17.60;99.90;;;;;;4978879;28;20466;-67
2022/08/22 06:00:19;;;;;;;11.63;6.87;;;17.80;99.90;;;;;;4978506;28;20906;-67
2022/08/22 06:02:59;;;;;;;10.00;6.80;;;18.00;99.90;;;;;;4978648;28;20905;-68
2022/08/22 06:05:28;;;;;;;8.10;7.47;;;18.10;99.90;;;;;;4978675;28;20446;-68
2022/08/22 06:08:02;;;;;;;8.50;7.37;;;18.10;99.90;;;;;;4978886;28;20511;-68
2022/08/22 06:10:35;;;;;;;9.27;8.30;;;18.20;99.90;;;;;;4978626;28;20441;-68
2022/08/22 06:13:08;;;;;;;8.40;7.13;;;18.30;99.90;;;;;;4978503;28;20435;-68
2022/08/22 06:15:43;;;;;;;8.20;7.50;;;18.40;99.90;;;;;;4978409;28;20543;-67
2022/08/22 06:18:13;;;;;;;7.90;7.13;;;18.50;99.90;;;;;;4978416;28;20465;-67
2022/08/22 06:20:45;;;;;;;7.93;7.17;;;18.70;99.90;;;;;;4978297;28;20478;-68
2022/08/22 06:23:16;;;;;;;7.50;6.80;;;18.80;99.90;;;;;;4978655;28;20446;-67
2022/08/22 06:25:46;;;;;;;6.90;6.30;;;19.00;99.90;;;;;;4978085;28;20435;-67
2022/08/22 06:28:21;;;;;;;6.37;5.83;;;19.20;99.90;;;;;;4978199;28;20454;-67
2022/08/22 06:30:52;;;;;;;11.83;6.30;;;19.30;99.90;;;;;;4977715;28;21008;-67
2022/08/22 06:33:24;;;;;;;7.80;5.73;;;19.60;99.90;;;;;;4977960;28;20449;-67
2022/08/22 06:38:57;;;;;;;7.53;6.93;;;20.60;99.90;;;;;;4977900;28;20417;-67
2022/08/22 06:41:28;;;;;;;7.53;6.33;;;21.20;99.90;;;;;;4977808;28;20482;-72
2022/08/22 06:43:56;;;;;;;6.67;6.00;;;21.80;99.90;;;;;;4977872;28;20450;-68
2022/08/22 06:46:27;;;;;;;7.20;6.50;;;22.40;99.90;;;;;;4977734;28;20455;-68
2022/08/22 06:48:55;;;;;;;6.93;6.33;;;23.00;99.90;;;;;;4977975;28;20442;-68
2022/08/22 06:51:26;;;;;;;6.33;5.70;;;23.50;99.90;;;;;;4977657;28;20872;-68
2022/08/22 06:53:59;;;;;;;6.60;6.03;;;24.00;99.90;;;;;;4977849;28;20499;-68
2022/08/22 06:56:30;;;;;;;7.63;6.17;;;24.60;99.90;;;;;;4977611;28;20818;-67
2022/08/22 06:59:00;;;;;;;8.80;7.20;;;25.10;99.90;;;;;;4977435;28;20779;-67
2022/08/22 07:01:30;;;;;;;11.00;7.30;;;25.60;98.70;;;;;;4976095;28;20490;-67
2022/08/22 07:04:02;;;;;;;6.87;6.27;;;26.10;96.20;;;;;;4977569;28;20805;-66
2022/08/22 07:06:34;;;;;;;10.43;6.47;;;26.30;94.10;;;;;;4977642;28;20447;-66
2022/08/22 07:09:02;;;;;;;6.63;6.13;;;26.60;92.50;;;;;;4977588;28;20443;-67
2022/08/22 07:11:31;;;;;;;6.03;5.63;;;25.80;92.70;;;;;;4977184;28;20482;-67
2022/08/22 07:14:02;;;;;;;6.43;5.93;;;25.90;93.20;;;;;;4977296;28;20462;-67
2022/08/22 07:16:32;;;;;;;6.93;6.33;;;26.20;93.00;;;;;;4976980;28;20981;-66
2022/08/22 07:19:00;;;;;;;6.53;5.90;;;26.60;91.90;;;;;;4976920;28;20914;-67
2022/08/22 07:21:29;;;;;;;7.17;6.37;;;27.00;91.40;;;;;;4977642;28;20486;-67
2022/08/22 07:23:59;;;;;;;6.00;5.60;;;27.50;90.80;;;;;;4977190;28;20514;-67
2022/08/22 07:26:32;;;;;;;6.27;5.67;;;28.00;89.30;;;;;;4977299;28;20449;-67
2022/08/22 07:29:06;;;;;;;6.00;5.53;;;28.50;86.80;;;;;;4977686;28;20439;-67
2022/08/22 07:31:37;;;;;;;6.60;6.10;;;28.80;84.30;;;;;;4977229;28;20482;-67
2022/08/22 07:34:21;;;;;;;8.43;6.13;;;29.10;83.30;;;;;;4977156;28;20443;-67
2022/08/22 07:36:54;;;;;;;7.10;5.87;;;29.50;78.70;;;;;;4976549;28;20529;-66
2022/08/22 07:39:27;;;;;;;6.83;6.20;;;29.60;79.20;;;;;;4977064;28;20439;-66
2022/08/22 07:42:06;;;;;;;10.37;6.00;;;30.10;77.70;;;;;;4977016;28;20896;-66
2022/08/22 07:44:37;;;;;;;6.53;5.93;;;30.40;74.90;;;;;;4976852;28;20462;-67
2022/08/22 07:47:09;;;;;;;6.53;6.03;;;30.90;71.90;;;;;;4976607;28;20443;-67
2022/08/22 07:49:42;;;;;;;7.10;6.10;;;31.10;72.10;;;;;;4976979;28;20497;-66
2022/08/22 07:52:12;;;;;;;6.17;5.27;;;31.50;70.20;;;;;;4976515;28;20475;-66
2022/08/22 07:54:44;;;;;;;5.63;4.40;;;31.80;68.70;;;;;;4976745;28;20451;-67
2022/08/22 07:57:15;;;;;;;5.50;5.00;;;32.10;65.10;;;;;;4976556;28;20442;-67
2022/08/22 07:59:47;;;;;;;6.27;4.50;;;32.50;62.60;;;;;;4976590;28;20443;-66
2022/08/22 08:02:17;;;;;;;4.60;4.20;;;32.40;64.20;;;;;;4976135;28;20486;-65
2022/08/22 08:04:45;;;;;;;4.67;4.10;;;32.70;61.00;;;;;;4976756;28;20450;-66
2022/08/22 08:07:15;;;;;;;6.33;5.13;;;32.80;60.20;;;;;;4976638;28;20459;-67
2022/08/22 08:09:45;;;;;;;4.37;4.00;;;32.80;59.40;;;;;;4976355;28;20443;-68
2022/08/22 08:12:15;;;;;;;4.40;4.10;;;32.80;59.70;;;;;;4976413;28;20478;-67
2022/08/22 08:14:45;;;;;;;5.60;4.20;;;32.80;61.50;;;;;;4976217;28;20461;-68
2022/08/22 08:17:20;;;;;;;4.50;4.20;;;32.90;60.00;;;;;;4976245;28;20498;-66
2022/08/22 08:19:49;;;;;;;7.83;4.83;;;33.10;58.40;;;;;;4976168;28;20438;-67
2022/08/22 08:22:20;;;;;;;4.50;4.07;;;33.30;57.70;;;;;;4976229;28;20474;-67
2022/08/22 08:24:48;;;;;;;5.10;4.07;;;33.60;58.30;;;;;;4976232;28;20435;-67
2022/08/22 08:30:14;;;;;;;5.07;4.77;;;33.70;58.40;;;;;;4976031;28;20442;-66
2022/08/22 08:32:42;;;;;;;5.55;4.05;;;34.10;55.90;;;;;;4975151;28;20988;-67
2022/08/22 08:35:22;;;;;;;5.03;4.30;;;34.70;55.80;;;;;;4975710;28;20203;-66
2022/08/22 08:37:54;;;;;;;4.40;4.20;;;34.70;55.30;;;;;;4975827;28;20474;-67
2022/08/22 08:40:43;;;;;;;5.33;4.87;;;34.80;55.60;;;;;;4975729;28;20438;-66
2022/08/22 08:43:28;;;;;;;5.10;4.70;;;34.70;54.70;;;;;;4975440;28;20484;-66
2022/08/22 08:46:16;;;;;;;4.50;4.10;;;35.00;56.10;;;;;;4975743;28;20438;-67
2022/08/22 08:49:08;;;;;;;8.13;5.30;;;34.60;55.40;;;;;;4975657;28;20449;-66
2022/08/22 08:51:52;;;;;;;5.10;4.80;;;34.90;54.70;;;;;;4975435;28;20478;-66
2022/08/22 08:54:54;;;;;;;4.97;4.60;;;34.70;54.90;;;;;;4975568;28;20442;-66
2022/08/22 08:57:36;;;;;;;5.43;5.03;;;35.20;55.00;;;;;;4976785;28;20525;-67
2022/08/22 09:00:10;;;;;;;4.87;4.57;;;35.80;54.00;;;;;;4979251;28;20453;-67
2022/08/22 09:02:49;;;;;;;5.17;4.53;;;36.30;52.30;;;;;;4976266;28;20429;-68
2022/08/22 09:05:49;;;;;;;6.67;4.70;;;36.80;53.20;;;;;;4975419;28;20446;-67
2022/08/22 09:08:52;;;;;;;4.73;4.43;;;36.80;51.90;;;;;;4974953;28;20439;-67
2022/08/22 09:11:56;;;;;;;4.60;4.20;;;36.80;52.20;;;;;;4975198;28;20484;-67
2022/08/22 09:14:53;;;;;;;4.10;3.90;;;37.00;50.10;;;;;;4953732;28;20496;-67
2022/08/22 09:17:48;;;;;;;3.57;3.33;;;37.10;50.40;;;;;;4975094;28;20481;-67
2022/08/22 09:20:53;;;;;;;5.00;4.70;;;37.50;50.70;;;;;;4974638;28;20807;-67
2022/08/22 09:23:48;;;;;;;5.00;4.63;;;37.70;50.00;;;;;;4965294;28;20466;-67
2022/08/22 09:26:19;;;;;;;5.03;4.63;;;37.90;50.30;;;;;;4974593;28;20451;-67
2022/08/22 09:28:53;;;;;;;5.47;5.03;;;37.90;48.40;;;;;;4974726;28;20445;-67
2022/08/22 09:31:35;;;;;;;5.10;4.80;;;37.60;48.10;;;;;;4974980;28;20485;-67
2022/08/22 09:34:10;;;;;;;4.70;4.30;;;37.40;51.30;;;;;;4975067;28;20442;-68
2022/08/22 09:36:54;;;;;;;5.03;4.37;;;37.60;49.40;;;;;;4975101;28;20470;-66
2022/08/22 09:39:26;;;;;;;4.63;4.43;;;37.90;47.60;;;;;;4975631;28;20446;-67
2022/08/22 09:42:01;;;;;;;4.07;3.83;;;38.10;47.20;;;;;;4975207;28;20560;-67
2022/08/22 09:44:38;;;;;;;4.10;3.90;;;38.20;46.80;;;;;;4975342;28;20442;-67
2022/08/22 09:47:13;;;;;;;4.60;4.30;;;38.10;46.00;;;;;;4974882;28;20438;-68
2022/08/22 09:49:51;;;;;;;4.47;4.27;;;38.10;45.90;;;;;;4974742;28;20434;-68
2022/08/22 09:52:43;;;;;;;4.47;4.27;;;37.70;45.30;;;;;;4974681;28;20481;-67
2022/08/22 09:55:27;;;;;;;4.23;4.03;;;37.70;47.40;;;;;;4974490;28;20438;-68
2022/08/22 09:58:01;;;;;;;4.53;4.23;;;37.40;46.00;;;;;;4974757;28;20430;-67
2022/08/22 10:00:35;;;;;;;5.83;4.33;;;37.50;47.00;;;;;;4974439;28;20487;-68
2022/08/22 10:03:11;;;;;;;4.67;4.27;;;37.80;47.00;;;;;;4975093;28;20443;-67
2022/08/22 10:05:45;;;;;;;4.43;4.13;;;37.90;47.60;;;;;;4974470;28;20901;-66
2022/08/22 10:08:33;;;;;;;4.67;4.37;;;38.10;45.20;;;;;;4974422;28;20906;-68
2022/08/22 10:11:10;;;;;;;3.90;3.70;;;38.20;44.80;;;;;;4974520;28;21004;-69
2022/08/22 10:13:46;;;;;;;4.53;4.23;;;38.20;44.10;;;;;;4974903;28;20442;-69
2022/08/22 10:16:30;;;;;;;4.97;4.57;;;38.00;46.10;;;;;;4974601;28;21006;-69
2022/08/22 10:19:15;;;;;;;4.57;4.37;;;37.90;44.80;;;;;;4975064;28;20813;-69
2022/08/22 10:22:03;;;;;;;4.17;3.97;;;38.10;44.30;;;;;;4975138;28;20485;-69
2022/08/22 10:24:37;;;;;;;3.80;3.60;;;37.90;43.90;;;;;;4975730;28;20438;-70
2022/08/22 10:27:10;;;;;;;3.77;3.57;;;38.10;44.20;;;;;;4974859;28;20486;-69
2022/08/22 10:30:02;;;;;;;3.43;3.23;;;38.20;44.10;;;;;;4974677;28;20438;-69
2022/08/22 10:32:35;;;;;;;4.37;4.17;;;38.70;43.80;;;;;;4974427;28;20845;-70
2022/08/22 10:35:10;;;;;;;4.57;4.27;;;39.00;44.10;;;;;;4974827;28;20446;-69
2022/08/22 10:37:44;;;;;;;4.30;3.90;;;39.20;43.50;;;;;;4978385;28;20818;-69
2022/08/22 10:40:18;;;;;;;4.13;3.93;;;39.50;43.50;;;;;;4978288;28;20434;-70
2022/08/22 10:42:52;;;;;;;3.70;3.50;;;39.90;41.30;;;;;;4978861;28;20191;-69
2022/08/22 10:45:27;;;;;;;3.90;3.60;;;39.80;41.80;;;;;;4978135;28;20183;-69
2022/08/22 10:48:30;;;;;;;4.43;4.13;;;39.50;40.60;;;;;;4977657;28;20584;-69
2022/08/22 10:51:11;;;;;;;3.87;3.67;;;39.10;42.10;;;;;;4977681;28;20465;-69
2022/08/22 10:53:56;;;;;;;3.83;3.50;;;38.70;41.80;;;;;;4977720;28;20446;-70
2022/08/22 10:56:28;;;;;;;3.53;3.33;;;38.40;40.80;;;;;;4977552;28;20948;-65
2022/08/22 10:59:04;;;;;;;3.93;3.73;;;38.10;41.70;;;;;;4977520;28;20456;-65
2022/08/22 11:01:39;;;;;;;3.90;3.70;;;38.00;41.10;;;;;;4977319;28;20491;-65
2022/08/22 11:04:16;;;;;;;4.90;3.97;;;38.00;42.00;;;;;;4977798;28;20446;-65
2022/08/22 11:06:46;;;;;;;3.67;3.47;;;37.90;41.60;;;;;;4977842;28;20439;-65
2022/08/22 11:09:25;;;;;;;3.60;3.40;;;37.80;43.80;;;;;;4978069;28;20438;-65
2022/08/22 11:12:01;;;;;;;3.53;3.20;;;37.40;41.80;;;;;;4977517;28;20485;-65
2022/08/22 11:15:01;;;;;;;4.17;3.77;;;37.30;41.40;;;;;;4977262;28;20467;-65
2022/08/22 11:17:49;;;;;;;3.60;3.30;;;36.80;44.30;;;;;;4977294;28;20466;-65
2022/08/22 11:20:22;;;;;;;6.73;3.80;;;36.40;43.50;;;;;;4977182;28;20570;-66
2022/08/22 11:23:08;;;;;;;3.53;3.33;;;36.20;42.60;;;;;;4977102;28;20443;-64
2022/08/22 11:25:50;;;;;;;3.90;3.60;;;36.30;42.00;;;;;;4977258;28;20443;-64
2022/08/22 11:28:49;;;;;;;3.50;3.20;;;36.30;41.20;;;;;;4977020;28;20805;-64
2022/08/22 11:31:23;;;;;;;3.90;3.70;;;36.30;41.60;;;;;;4976851;28;20494;-63
2022/08/22 11:33:54;;;;;;;3.60;3.30;;;35.80;44.00;;;;;;4977081;28;20449;-63
2022/08/22 11:36:30;;;;;;;3.50;3.20;;;35.50;41.90;;;;;;4976834;28;20466;-63
2022/08/22 11:39:05;;;;;;;3.97;3.57;;;35.40;43.00;;;;;;4976878;28;20449;-62
2022/08/22 11:41:41;;;;;;;6.37;3.70;;;35.10;45.70;;;;;;4977051;28;20481;-63
2022/08/22 11:44:14;;;;;;;4.90;4.60;;;34.80;45.20;;;;;;4976474;28;20784;-62
2022/08/22 11:46:44;;;;;;;4.20;3.90;;;34.60;44.50;;;;;;4976950;28;20490;-62
2022/08/22 11:49:25;;;;;;;3.50;3.30;;;34.30;44.00;;;;;;4976514;28;20458;-62
2022/08/22 11:52:19;;;;;;;3.83;3.43;;;34.10;46.20;;;;;;4976737;28;20481;-62
2022/08/22 11:55:02;;;;;;;3.20;3.00;;;33.80;46.80;;;;;;4976657;28;20446;-62
2022/08/22 11:57:34;;;;;;;3.60;3.30;;;33.80;45.10;;;;;;4976510;28;20462;-62
2022/08/22 12:00:17;;;;;;;4.40;4.07;;;33.80;43.80;;;;;;4976623;28;20439;-62
2022/08/22 12:03:04;;;;;;;3.80;3.50;;;33.50;44.70;;;;;;4976230;28;20968;-62
2022/08/22 12:05:39;;;;;;;4.33;3.80;;;33.30;45.30;;;;;;4976406;28;20441;-62
2022/08/22 12:08:11;;;;;;;3.23;3.10;;;33.20;46.00;;;;;;4976509;28;20430;-63
2022/08/22 12:10:47;;;;;;;3.57;3.30;;;33.30;45.60;;;;;;4976267;28;20481;-63
2022/08/22 12:13:21;;;;;;;3.40;3.20;;;33.40;45.60;;;;;;4979187;28;20438;-63
2022/08/22 12:15:56;;;;;;;4.13;3.80;;;33.40;46.10;;;;;;4981902;28;20439;-62
2022/08/22 12:18:50;;;;;;;3.80;3.27;;;33.30;46.20;;;;;;4977770;28;20465;-63
2022/08/22 12:22:02;;;;;;;3.73;3.53;;;33.00;46.00;;;;;;4976000;28;20482;-63
2022/08/22 12:24:40;;;;;;;6.23;3.20;;;32.70;46.00;;;;;;4976021;28;20490;-63
2022/08/22 12:27:26;;;;;;;4.03;3.70;;;32.50;44.90;;;;;;4975906;28;20679;-63
2022/08/22 12:30:12;;;;;;;3.20;3.00;;;32.40;46.30;;;;;;4975569;28;20801;-63
2022/08/22 12:33:12;;;;;;;3.50;3.20;;;32.40;43.60;;;;;;4975780;28;20844;-63
2022/08/22 12:35:49;;;;;;;2.77;2.57;;;32.20;44.00;;;;;;4975969;28;20514;-63
2022/08/22 12:38:31;;;;;;;2.90;2.80;;;32.20;44.10;;;;;;4975853;28;20470;-63
2022/08/22 12:41:23;;;;;;;2.57;2.47;;;32.10;43.40;;;;;;4975712;28;20478;-63
2022/08/22 12:43:58;;;;;;;3.13;2.90;;;32.30;44.00;;;;;;4975282;28;20818;-63
2022/08/22 12:46:41;;;;;;;3.63;3.30;;;32.40;43.00;;;;;;4975837;28;20533;-62
2022/08/22 12:49:24;;;;;;;6.50;2.80;;;32.60;44.50;;;;;;4975691;28;20446;-63
2022/08/22 12:52:07;;;;;;;3.40;3.23;;;32.70;45.80;;;;;;4975721;28;20474;-62
2022/08/22 12:54:57;;;;;;;2.83;2.73;;;32.90;44.20;;;;;;4975431;28;20917;-63
2022/08/22 12:57:37;;;;;;;3.60;3.30;;;32.90;43.70;;;;;;4975747;28;20468;-62
2022/08/22 13:00:11;;;;;;;4.30;4.00;;;32.90;43.50;;;;;;4974706;28;20554;-63
2022/08/22 13:02:43;;;;;;;4.67;3.97;;;33.10;45.70;;;;;;4975912;28;20478;-63
2022/08/22 13:05:15;;;;;;;3.33;3.10;;;33.00;46.10;;;;;;4975454;28;20438;-63
2022/08/22 13:07:43;;;;;;;3.60;3.00;;;32.80;44.90;;;;;;4975488;28;20442;-63
2022/08/22 13:10:42;;;;;;;3.27;3.07;;;32.90;45.50;;;;;;4975189;28;20822;-63
2022/08/22 13:13:14;;;;;;;3.30;3.10;;;32.90;45.30;;;;;;4975170;28;20465;-62
2022/08/22 13:15:46;;;;;;;3.27;2.97;;;33.00;45.50;;;;;;4975757;28;20446;-63
2022/08/22 13:18:20;;;;;;;3.33;3.00;;;33.10;45.10;;;;;;4975116;28;20469;-63
2022/08/22 13:20:50;;;;;;;4.00;3.70;;;33.10;43.90;;;;;;4975339;28;20480;-63
2022/08/22 13:23:22;;;;;;;3.47;3.27;;;32.90;43.90;;;;;;4975322;28;20513;-62
2022/08/22 13:26:03;;;;;;;3.50;3.20;;;32.80;45.10;;;;;;4974890;28;20928;-62
2022/08/22 13:28:33;;;;;;;3.40;3.20;;;32.60;44.10;;;;;;4975486;28;20474;-63
2022/08/22 13:31:01;;;;;;;4.63;4.23;;;32.60;43.90;;;;;;4975586;28;20477;-62
2022/08/22 13:33:34;;;;;;;3.70;3.03;;;32.60;44.80;;;;;;4974862;28;20458;-62
2022/08/22 13:36:05;;;;;;;3.90;3.60;;;32.60;46.30;;;;;;4975649;28;20470;-63
2022/08/22 13:38:39;;;;;;;4.33;4.00;;;32.40;45.90;;;;;;4975509;28;20473;-63
2022/08/22 13:41:09;;;;;;;4.20;3.77;;;32.30;48.00;;;;;;4975077;28;20481;-63
2022/08/22 13:43:54;;;;;;;3.00;2.90;;;32.20;46.30;;;;;;4975046;28;20455;-62
2022/08/22 13:46:26;;;;;;;3.90;3.60;;;32.10;46.40;;;;;;4974635;28;20914;-62
2022/08/22 13:48:57;;;;;;;3.90;3.60;;;32.10;45.90;;;;;;4974988;28;20449;-62
2022/08/22 13:51:30;;;;;;;3.53;3.23;;;32.00;46.10;;;;;;4974855;28;20482;-62
2022/08/22 13:54:05;;;;;;;4.03;3.70;;;31.70;47.40;;;;;;4974974;28;20441;-62
2022/08/22 13:56:40;;;;;;;4.17;3.33;;;31.30;47.50;;;;;;4975022;28;20439;-62
2022/08/22 13:59:15;;;;;;;4.10;3.80;;;31.10;48.10;;;;;;4974976;28;20904;-62
2022/08/22 14:01:49;;;;;;;3.50;3.20;;;30.70;49.40;;;;;;4974855;28;20489;-62
2022/08/22 14:04:25;;;;;;;3.43;3.13;;;30.40;49.40;;;;;;4975002;28;20440;-62
2022/08/22 14:06:57;;;;;;;3.50;3.30;;;30.30;47.90;;;;;;4974720;28;20442;-62
2022/08/22 14:09:37;;;;;;;4.13;3.50;;;30.20;48.30;;;;;;4975156;28;20435;-62
2022/08/22 14:12:09;;;;;;;4.07;3.77;;;30.00;47.90;;;;;;4977996;28;20478;-62
2022/08/22 14:14:40;;;;;;;3.63;3.33;;;30.00;49.20;;;;;;4978248;28;20910;-62
2022/08/22 14:17:13;;;;;;;4.53;3.73;;;29.90;49.90;;;;;;4982376;28;20462;-62
2022/08/22 14:19:44;;;;;;;4.20;3.90;;;29.80;50.60;;;;;;4982984;28;20497;-62
2022/08/22 14:22:16;;;;;;;3.73;3.47;;;29.80;51.40;;;;;;4983266;28;20479;-62
2022/08/22 14:24:47;;;;;;;3.97;3.67;;;30.00;50.50;;;;;;4983264;28;20535;-61
2022/08/22 14:27:26;;;;;;;4.67;4.27;;;30.10;50.00;;;;;;4983088;28;20439;-62
2022/08/22 14:29:55;;;;;;;3.60;3.33;;;30.30;49.60;;;;;;4982623;28;20474;-63
2022/08/22 14:32:45;;;;;;;5.10;3.00;;;30.60;50.60;;;;;;4986019;28;20982;-62
2022/08/22 14:35:20;;;;;;;3.60;3.30;;;30.80;49.00;;;;;;4982764;28;20458;-62
2022/08/22 14:37:53;;;;;;;3.77;3.50;;;30.80;48.60;;;;;;4985949;28;20830;-62
2022/08/22 14:40:25;;;;;;;3.63;3.43;;;30.90;49.40;;;;;;4984184;28;20783;-62
2022/08/22 14:42:55;;;;;;;3.57;3.37;;;30.90;49.50;;;;;;4984296;28;20869;-62
2022/08/22 14:45:26;;;;;;;3.57;3.37;;;30.80;48.70;;;;;;4983429;28;20910;-62
2022/08/22 14:47:57;;;;;;;6.10;3.93;;;31.00;49.80;;;;;;4985331;28;20439;-62
2022/08/22 14:50:41;;;;;;;4.13;3.80;;;30.90;48.40;;;;;;4984791;28;20443;-62
2022/08/22 14:53:10;;;;;;;4.20;3.80;;;30.80;48.10;;;;;;4980293;28;20442;-62
2022/08/22 14:55:39;;;;;;;3.90;3.60;;;30.90;49.00;;;;;;4981941;28;20973;-62
2022/08/22 14:58:15;;;;;;;3.13;3.03;;;31.00;48.60;;;;;;4980355;28;20997;-62
2022/08/22 15:00:45;;;;;;;3.63;3.33;;;31.10;50.20;;;;;;4978049;28;20489;-62
2022/08/22 15:03:23;;;;;;;3.07;2.87;;;31.30;48.20;;;;;;4977655;28;20462;-62
2022/08/22 15:05:54;;;;;;;3.87;3.47;;;31.40;48.10;;;;;;4977776;28;20442;-62
2022/08/22 15:08:24;;;;;;;3.80;3.60;;;31.30;49.10;;;;;;4977732;28;20439;-62
2022/08/22 15:11:10;;;;;;;3.67;3.47;;;31.20;49.20;;;;;;4977468;28;20561;-62
2022/08/22 15:13:39;;;;;;;3.27;3.07;;;31.30;48.10;;;;;;4977488;28;20446;-62
2022/08/22 15:16:15;;;;;;;3.13;2.90;;;31.20;49.10;;;;;;4977437;28;20462;-62
2022/08/22 15:18:44;;;;;;;3.90;3.27;;;31.20;48.80;;;;;;4977283;28;20462;-62
2022/08/22 15:21:20;;;;;;;3.83;3.60;;;31.10;48.40;;;;;;4977135;28;20470;-62
2022/08/22 15:23:48;;;;;;;3.23;3.00;;;31.10;48.80;;;;;;4976486;28;20465;-62
2022/08/22 15:26:22;;;;;;;3.27;3.07;;;31.20;48.90;;;;;;4977029;28;20494;-62
2022/08/22 15:28:56;;;;;;;3.60;3.30;;;31.10;48.50;;;;;;4979280;28;20442;-62
2022/08/22 15:31:23;;;;;;;3.70;3.40;;;30.80;48.70;;;;;;4981224;28;20478;-63
2022/08/22 15:33:51;;;;;;;3.93;3.30;;;30.60;48.90;;;;;;4979279;28;20458;-62
2022/08/22 15:36:26;;;;;;;4.00;3.70;;;30.50;48.70;;;;;;4977080;28;20458;-62
2022/08/22 15:38:55;;;;;;;3.60;3.37;;;30.40;48.80;;;;;;4976877;28;20466;-62
2022/08/22 15:41:39;;;;;;;4.87;4.00;;;30.30;49.30;;;;;;4976746;28;20533;-62
2022/08/22 15:44:10;;;;;;;3.43;3.23;;;30.20;49.10;;;;;;4976531;28;20477;-62
2022/08/22 15:46:40;;;;;;;3.73;3.43;;;30.20;49.30;;;;;;4976629;28;20439;-62
2022/08/22 15:49:11;;;;;;;3.27;3.07;;;30.20;48.70;;;;;;4976643;28;20457;-62
2022/08/22 15:51:43;;;;;;;3.40;3.20;;;30.10;48.80;;;;;;4976626;28;20482;-62
2022/08/22 15:54:15;;;;;;;3.57;3.30;;;30.10;49.60;;;;;;4976653;28;20799;-62
2022/08/22 15:56:58;;;;;;;4.23;3.83;;;30.00;49.70;;;;;;4976465;28;20439;-62
2022/08/22 15:59:32;;;;;;;4.13;3.83;;;30.00;49.70;;;;;;4977251;28;20463;-62
2022/08/22 16:02:03;;;;;;;3.70;3.13;;;29.90;50.30;;;;;;4976172;28;20858;-63
2022/08/22 16:04:48;;;;;;;3.10;2.90;;;29.90;50.10;;;;;;4976471;28;20447;-63
2022/08/22 16:07:35;;;;;;;3.97;3.43;;;30.00;49.90;;;;;;4976416;28;20442;-63
2022/08/22 16:10:09;;;;;;;5.23;3.63;;;29.90;49.50;;;;;;4976299;28;20526;-63
2022/08/22 16:12:39;;;;;;;3.90;3.60;;;29.70;49.80;;;;;;4976077;28;20837;-63
2022/08/22 16:15:28;;;;;;;4.07;3.87;;;29.60;49.90;;;;;;4976321;28;20518;-63
2022/08/22 16:17:54;;;;;;;3.50;3.30;;;29.50;50.70;;;;;;4975909;28;20483;-63
2022/08/22 16:20:42;;;;;;;4.23;3.90;;;29.40;50.40;;;;;;4976191;28;20450;-63
2022/08/22 16:23:10;;;;;;;4.27;3.87;;;29.30;50.70;;;;;;4975787;28;20958;-63
2022/08/22 16:26:06;;;;;;;4.13;3.73;;;29.30;50.40;;;;;;4976104;28;20461;-63
2022/08/22 16:28:36;;;;;;;5.50;3.30;;;29.30;50.10;;;;;;4975969;28;20454;-62
2022/08/22 16:31:17;;;;;;;3.70;3.37;;;29.20;50.30;;;;;;4976066;28;20482;-62
2022/08/22 16:33:44;;;;;;;3.90;3.50;;;29.20;50.60;;;;;;4975972;28;20443;-63
2022/08/22 16:36:17;;;;;;;3.50;3.30;;;29.10;50.50;;;;;;4975777;28;20513;-62
2022/08/22 16:38:47;;;;;;;4.03;3.73;;;29.00;50.50;;;;;;4975458;28;20973;-62
2022/08/22 16:41:28;;;;;;;3.67;3.37;;;28.90;50.50;;;;;;4975422;28;20478;-62
2022/08/22 16:44:27;;;;;;;3.60;3.40;;;28.80;50.60;;;;;;4975883;28;20439;-62
2022/08/22 16:47:07;;;;;;;3.10;2.93;;;28.80;50.80;;;;;;4969253;28;20513;-62
2022/08/22 16:49:38;;;;;;;3.40;3.10;;;28.70;51.00;;;;;;4975646;28;20431;-63
2022/08/22 16:52:42;;;;;;;4.50;3.33;;;28.70;50.80;;;;;;4975634;28;20478;-63
2022/08/22 16:55:42;;;;;;;4.00;3.70;;;28.70;51.70;;;;;;4975288;28;20545;-63
2022/08/22 16:58:29;;;;;;;3.73;3.43;;;28.60;51.80;;;;;;4975471;28;20467;-63
2022/08/22 17:01:06;;;;;;;4.33;3.40;;;28.50;51.40;;;;;;4943274;28;20478;-63
2022/08/22 17:03:42;;;;;;;3.63;3.00;;;28.40;51.80;;;;;;4975190;28;20442;-63
2022/08/22 17:06:27;;;;;;;3.37;3.03;;;28.40;52.20;;;;;;4975547;28;20454;-63
2022/08/22 17:09:06;;;;;;;3.40;3.20;;;28.40;52.80;;;;;;4975560;28;20467;-63
2022/08/22 17:11:48;;;;;;;3.17;2.77;;;28.30;52.40;;;;;;4975658;28;20474;-63
2022/08/22 17:14:33;;;;;;;3.13;2.93;;;28.30;51.90;;;;;;4976701;28;20443;-63
2022/08/22 17:17:14;;;;;;;4.57;2.80;;;28.20;52.00;;;;;;4975433;28;20438;-63
2022/08/22 17:19:57;;;;;;;3.97;3.00;;;28.20;52.20;;;;;;4974849;28;20462;-63
2022/08/22 17:22:31;;;;;;;4.20;2.90;;;28.10;51.80;;;;;;4974971;28;20474;-62
2022/08/22 17:25:10;;;;;;;3.50;3.30;;;28.10;52.70;;;;;;4975180;28;20443;-62
2022/08/22 17:27:40;;;;;;;3.60;3.40;;;28.10;53.00;;;;;;4975231;28;20442;-62
2022/08/22 17:30:12;;;;;;;3.93;3.23;;;28.00;52.90;;;;;;4975126;28;20462;-62
2022/08/22 17:32:56;;;;;;;3.80;3.50;;;27.90;53.30;;;;;;4974762;28;20985;-62
2022/08/22 17:35:33;;;;;;;3.40;2.60;;;27.80;53.70;;;;;;4975176;28;20439;-62
2022/08/22 17:38:12;;;;;;;4.03;2.70;;;27.70;53.90;;;;;;4975204;28;20493;-61
2022/08/22 17:40:46;;;;;;;4.37;2.87;;;27.60;53.70;;;;;;4975008;28;20474;-62
2022/08/22 17:43:28;;;;;;;2.83;2.70;;;27.50;54.10;;;;;;4974935;28;20810;-62